Terminal Aerodrome Forecast
Issued by NWS North Platte, NE

Home | Current Version | Previous Version | Text Only | Print | Product List | Glossary On
Versions: 1 2 3 4 5 6 7 8 9 10 11 12 13 14
000
FTUS43 KLBF 230408 AAC
TAFVTN
TAF AMD
KVTN 230408Z 2304/2324 36010KT P6SM VCTS SCT025 BKN050 BKN100CB
      TEMPO 2304/2305 6SM -TSRA BKN025 BKN050CB
     FM230600 35010KT P6SM -SHRA VCTS BKN060 BKN100CB
     FM230900 01008KT P6SM BKN025 OVC040
     FM231200 01007KT P6SM -SHRA SCT010 OVC025
     FM231800 02008KT 5SM -SHRA BKN008 OVC010=

USA.gov is the U.S. government's official web portal to all federal, state and local government web resources and services.